Time;durP1;ratioP1;P1;durP2;ratioP2;P2;SDS_P1;SDS_P2;PMS_P1;PMS_P2;Temp;Humidity;BMP_temperature;BMP_pressure;BME280_temperature;BME280_humidity;BME280_pressure;Samples;Min_cycle;Max_cycle;Signal;HPM_P1;HPM_P2
2023/01/07 00:01:13;;;;;;;;;;;;;;;;;;6222527;23;19946;-81
2023/01/07 00:03:39;;;;;;;;;;;;;;;;;;6250841;23;20328;-81
2023/01/07 00:06:05;;;;;;;;;;;;;;;;;;6223343;23;20328;-81
2023/01/07 00:08:30;;;;;;;;;;;;;;;;;;6227671;23;19934;-81
2023/01/07 00:10:56;;;;;;;;;;;;;;;;;;6259677;23;19918;-81
2023/01/07 00:13:22;;;;;;;;;;;;;;;;;;6208171;23;19919;-81
2023/01/07 00:15:48;;;;;;;;;;;;;;;;;;6207265;23;19919;-81
2023/01/07 00:18:13;;;;;;;;;;;;;;;;;;6260774;23;20340;-81
2023/01/07 00:20:39;;;;;;;;;;;;;;;;;;6234287;23;19911;-83
2023/01/07 00:23:05;;;;;;;;;;;;;;;;;;6238392;23;19963;-80
2023/01/07 00:25:30;;;;;;;;;;;;;;;;;;6213156;23;19986;-82
2023/01/07 00:27:56;;;;;;;;;;;;;;;;;;6238840;23;19911;-83
2023/01/07 00:30:22;;;;;;;;;;;;;;;;;;6241434;23;19911;-82
2023/01/07 00:35:23;;;;;;;;;;;;;;;;;;6257800;23;19942;-82
2023/01/07 00:37:48;;;;;;;;;;;;;;;;;;6258997;23;19911;-82
2023/01/07 00:40:14;;;;;;;;;;;;;;;;;;6261456;23;19959;-82
2023/01/07 00:45:24;;;;;;;;;;;;;;;;;;6252810;23;19911;-82
2023/01/07 00:47:53;;;;;;;;;;;;;;;;;;6253151;23;19943;-81
2023/01/07 00:50:19;;;;;;;;;;;;;;;;;;6198264;23;19911;-81
2023/01/07 00:52:44;;;;;;;;;;;;;;;;;;6248408;23;19950;-80
2023/01/07 00:55:10;;;;;;;;;;;;;;;;;;6222909;23;19912;-81
2023/01/07 00:57:36;;;;;;;;;;;;;;;;;;6223679;23;19997;-79
2023/01/07 01:00:02;;;;;;;;;;;;;;;;;;6220299;23;19981;-80
2023/01/07 01:02:28;;;;;;;;;;;;;;;;;;6246010;23;19926;-80
2023/01/07 01:04:54;;;;;;;;;;;;;;;;;;6194608;23;20326;-80
2023/01/07 01:07:20;;;;;;;;;;;;;;;;;;6220536;23;19912;-80
2023/01/07 01:09:45;;;;;;;;;;;;;;;;;;6220529;23;20256;-80
2023/01/07 01:12:11;;;;;;;;;;;;;;;;;;6222772;23;20256;-81
2023/01/07 01:14:37;;;;;;;;;;;;;;;;;;6255192;23;19957;-81
2023/01/07 01:17:02;;;;;;;;;;;;;;;;;;6257668;23;19947;-82
2023/01/07 01:19:28;;;;;;;;;;;;;;;;;;6264285;23;19918;-81
2023/01/07 01:21:54;;;;;;;;;;;;;;;;;;6268186;23;19939;-81
2023/01/07 01:24:20;;;;;;;;;;;;;;;;;;6268542;23;19958;-81
2023/01/07 01:26:45;;;;;;;;;;;;;;;;;;6269984;23;19912;-80
2023/01/07 01:29:11;;;;;;;;;;;;;;;;;;6272037;22;19915;-81
2023/01/07 01:31:37;;;;;;;;;;;;;;;;;;6220784;23;19896;-81
2023/01/07 01:34:04;;;;;;;;;;;;;;;;;;6272799;23;19963;-83
2023/01/07 01:36:29;;;;;;;;;;;;;;;;;;6242303;23;19903;-82
2023/01/07 01:38:57;;;;;;;;;;;;;;;;;;6239826;23;19935;-80
2023/01/07 01:41:25;;;;;;;;;;;;;;;;;;6236757;23;19927;-82
2023/01/07 01:43:52;;;;;;;;;;;;;;;;;;6212857;23;19919;-81
2023/01/07 01:46:18;;;;;;;;;;;;;;;;;;6235727;23;19967;-81
2023/01/07 01:48:44;;;;;;;;;;;;;;;;;;6243108;22;19911;-82
2023/01/07 01:51:09;;;;;;;;;;;;;;;;;;6266946;22;19968;-82
2023/01/07 01:53:35;;;;;;;;;;;;;;;;;;6248633;22;19899;-80
2023/01/07 01:56:01;;;;;;;;;;;;;;;;;;6247954;23;19939;-80
2023/01/07 01:58:28;;;;;;;;;;;;;;;;;;6247972;22;19947;-81
2023/01/07 02:00:53;;;;;;;;;;;;;;;;;;6248179;23;19900;-80
2023/01/07 02:03:19;;;;;;;;;;;;;;;;;;6247999;22;19908;-80
2023/01/07 02:05:45;;;;;;;;;;;;;;;;;;6248184;23;19934;-80
2023/01/07 02:08:11;;;;;;;;;;;;;;;;;;6221269;23;19916;-80
2023/01/07 02:10:37;;;;;;;;;;;;;;;;;;6243520;23;19938;-80
2023/01/07 02:13:04;;;;;;;;;;;;;;;;;;6207612;23;19912;-81
2023/01/07 02:15:30;;;;;;;;;;;;;;;;;;6238320;23;19892;-82
2023/01/07 02:17:56;;;;;;;;;;;;;;;;;;6233302;23;19958;-82
2023/01/07 02:20:21;;;;;;;;;;;;;;;;;;6232502;23;19994;-82
2023/01/07 02:22:48;;;;;;;;;;;;;;;;;;6233415;23;19920;-81
2023/01/07 02:25:13;;;;;;;;;;;;;;;;;;6232860;23;20433;-82
2023/01/07 02:27:39;;;;;;;;;;;;;;;;;;6230904;23;20424;-81
2023/01/07 02:30:04;;;;;;;;;;;;;;;;;;6235604;23;19927;-80
2023/01/07 02:32:30;;;;;;;;;;;;;;;;;;6230172;23;19911;-79
2023/01/07 02:34:57;;;;;;;;;;;;;;;;;;6260605;23;19968;-81
2023/01/07 02:37:23;;;;;;;;;;;;;;;;;;6215163;23;20728;-80
2023/01/07 02:39:48;;;;;;;;;;;;;;;;;;6216730;23;19935;-80
2023/01/07 02:42:14;;;;;;;;;;;;;;;;;;6243029;23;19941;-81
2023/01/07 02:44:40;;;;;;;;;;;;;;;;;;6267297;23;19922;-81
2023/01/07 02:47:05;;;;;;;;;;;;;;;;;;6237122;23;19942;-79
2023/01/07 02:49:31;;;;;;;;;;;;;;;;;;6236528;23;19912;-80
2023/01/07 02:51:57;;;;;;;;;;;;;;;;;;6238925;23;19920;-81
2023/01/07 02:54:23;;;;;;;;;;;;;;;;;;6227519;23;20232;-79
2023/01/07 02:56:50;;;;;;;;;;;;;;;;;;6198219;23;19911;-79
2023/01/07 02:59:15;;;;;;;;;;;;;;;;;;6224896;23;19935;-78
2023/01/07 03:01:41;;;;;;;;;;;;;;;;;;6223624;23;19951;-79
2023/01/07 03:04:06;;;;;;;;;;;;;;;;;;6212854;23;19903;-79
2023/01/07 03:06:32;;;;;;;;;;;;;;;;;;6240876;23;19900;-78
2023/01/07 03:08:58;;;;;;;;;;;;;;;;;;6240736;23;19951;-80
2023/01/07 03:11:24;;;;;;;;;;;;;;;;;;6216466;23;19900;-80
2023/01/07 03:13:50;;;;;;;;;;;;;;;;;;6241671;23;19896;-80
2023/01/07 03:16:17;;;;;;;;;;;;;;;;;;6242196;23;19908;-80
2023/01/07 03:18:44;;;;;;;;;;;;;;;;;;6241631;23;19915;-80
2023/01/07 03:21:10;;;;;;;;;;;;;;;;;;6242280;23;19900;-81
2023/01/07 03:23:35;;;;;;;;;;;;;;;;;;6239930;23;19915;-77
2023/01/07 03:26:01;;;;;;;;;;;;;;;;;;6232125;23;19912;-80
2023/01/07 03:28:27;;;;;;;;;;;;;;;;;;6235019;23;19932;-79
2023/01/07 03:30:52;;;;;;;;;;;;;;;;;;6240965;23;19923;-79
2023/01/07 03:33:18;;;;;;;;;;;;;;;;;;6240484;23;19920;-81
2023/01/07 03:35:44;;;;;;;;;;;;;;;;;;6240199;23;19938;-81
2023/01/07 03:38:10;;;;;;;;;;;;;;;;;;6236654;23;19922;-80
2023/01/07 03:40:36;;;;;;;;;;;;;;;;;;6235876;23;19919;-80
2023/01/07 03:43:01;;;;;;;;;;;;;;;;;;6236680;23;19963;-82
2023/01/07 03:45:27;;;;;;;;;;;;;;;;;;6238163;23;19911;-80
2023/01/07 03:47:55;;;;;;;;;;;;;;;;;;6237428;23;19911;-82
2023/01/07 03:50:22;;;;;;;;;;;;;;;;;;6235206;23;19911;-79
2023/01/07 03:52:49;;;;;;;;;;;;;;;;;;6232680;23;19935;-79
2023/01/07 03:55:16;;;;;;;;;;;;;;;;;;6182938;23;20175;-79
2023/01/07 03:57:42;;;;;;;;;;;;;;;;;;6236881;23;19907;-80
2023/01/07 04:00:08;;;;;;;;;;;;;;;;;;6238696;23;19942;-81
2023/01/07 04:02:39;;;;;;;;;;;;;;;;;;6238234;23;19954;-79
2023/01/07 04:05:05;;;;;;;;;;;;;;;;;;6236859;23;19912;-81
2023/01/07 04:07:31;;;;;;;;;;;;;;;;;;6212510;23;19923;-81
2023/01/07 04:09:57;;;;;;;;;;;;;;;;;;6237373;23;19922;-80
2023/01/07 04:12:23;;;;;;;;;;;;;;;;;;6236538;23;19930;-80
2023/01/07 04:14:49;;;;;;;;;;;;;;;;;;6227024;23;19912;-79
2023/01/07 04:17:14;;;;;;;;;;;;;;;;;;6236145;23;19918;-80
2023/01/07 04:19:40;;;;;;;;;;;;;;;;;;6235319;23;19923;-80
2023/01/07 04:22:06;;;;;;;;;;;;;;;;;;6233659;23;19920;-80
2023/01/07 04:24:31;;;;;;;;;;;;;;;;;;6234043;23;19911;-79
2023/01/07 04:26:57;;;;;;;;;;;;;;;;;;6229761;23;19912;-80
2023/01/07 04:29:23;;;;;;;;;;;;;;;;;;6230936;23;19908;-81
2023/01/07 04:31:48;;;;;;;;;;;;;;;;;;6228720;23;19927;-81
2023/01/07 04:34:14;;;;;;;;;;;;;;;;;;6229461;23;19912;-79
2023/01/07 04:36:41;;;;;;;;;;;;;;;;;;6231551;23;19919;-79
2023/01/07 04:39:07;;;;;;;;;;;;;;;;;;6232435;23;19912;-79
2023/01/07 04:41:32;;;;;;;;;;;;;;;;;;6233471;23;19959;-81
2023/01/07 04:43:58;;;;;;;;;;;;;;;;;;6239914;23;19934;-82
2023/01/07 04:46:24;;;;;;;;;;;;;;;;;;6240436;23;19919;-80
2023/01/07 04:48:50;;;;;;;;;;;;;;;;;;6238318;23;19896;-80
2023/01/07 04:51:16;;;;;;;;;;;;;;;;;;6246511;23;19930;-80
2023/01/07 04:53:42;;;;;;;;;;;;;;;;;;6217498;23;19918;-80
2023/01/07 04:56:07;;;;;;;;;;;;;;;;;;6243443;23;19938;-80
2023/01/07 04:58:33;;;;;;;;;;;;;;;;;;6218937;23;20180;-81
2023/01/07 05:01:00;;;;;;;;;;;;;;;;;;6216423;23;19915;-80
2023/01/07 05:03:27;;;;;;;;;;;;;;;;;;6242405;23;19919;-80
2023/01/07 05:05:53;;;;;;;;;;;;;;;;;;6207852;23;19911;-78
2023/01/07 05:08:19;;;;;;;;;;;;;;;;;;6233103;23;19915;-79
2023/01/07 05:10:46;;;;;;;;;;;;;;;;;;6234148;23;19919;-79
2023/01/07 05:13:11;;;;;;;;;;;;;;;;;;6263968;23;19896;-79
2023/01/07 05:15:37;;;;;;;;;;;;;;;;;;6239044;23;20352;-79
2023/01/07 05:18:04;;;;;;;;;;;;;;;;;;6236227;23;19935;-79
2023/01/07 05:20:30;;;;;;;;;;;;;;;;;;6213143;23;19938;-79
2023/01/07 05:22:56;;;;;;;;;;;;;;;;;;6237090;23;19923;-79
2023/01/07 05:25:22;;;;;;;;;;;;;;;;;;6259085;23;19918;-78
2023/01/07 05:27:48;;;;;;;;;;;;;;;;;;6257165;23;19908;-81
2023/01/07 05:30:14;;;;;;;;;;;;;;;;;;6235795;23;19915;-79
2023/01/07 05:32:40;;;;;;;;;;;;;;;;;;6239897;23;19915;-81
2023/01/07 05:35:06;;;;;;;;;;;;;;;;;;6237473;23;19990;-79
2023/01/07 05:37:31;;;;;;;;;;;;;;;;;;6238189;23;19918;-80
2023/01/07 05:39:57;;;;;;;;;;;;;;;;;;6238574;23;19930;-80
2023/01/07 05:42:23;;;;;;;;;;;;;;;;;;6211979;23;19951;-80
2023/01/07 05:44:49;;;;;;;;;;;;;;;;;;6235939;23;19915;-79
2023/01/07 05:47:14;;;;;;;;;;;;;;;;;;6262303;23;19912;-79
2023/01/07 05:49:40;;;;;;;;;;;;;;;;;;6264121;23;19912;-80
2023/01/07 05:52:06;;;;;;;;;;;;;;;;;;6211276;23;19919;-79
2023/01/07 05:54:31;;;;;;;;;;;;;;;;;;6262419;23;19912;-79
2023/01/07 05:56:57;;;;;;;;;;;;;;;;;;6253822;23;19912;-79
2023/01/07 05:59:23;;;;;;;;;;;;;;;;;;6227995;23;19919;-78
2023/01/07 06:01:48;;;;;;;;;;;;;;;;;;6262610;23;19911;-77
2023/01/07 06:04:14;;;;;;;;;;;;;;;;;;6263590;23;19911;-78
2023/01/07 06:06:40;;;;;;;;;;;;;;;;;;6263010;23;19911;-77
2023/01/07 06:09:06;;;;;;;;;;;;;;;;;;6263414;23;20022;-78
2023/01/07 06:11:31;;;;;;;;;;;;;;;;;;6257532;23;19919;-78
2023/01/07 06:13:57;;;;;;;;;;;;;;;;;;6232245;23;19911;-78
2023/01/07 06:16:22;;;;;;;;;;;;;;;;;;6260332;23;19923;-80
2023/01/07 06:18:48;;;;;;;;;;;;;;;;;;6232912;23;19918;-79
2023/01/07 06:21:15;;;;;;;;;;;;;;;;;;6258314;23;19922;-79
2023/01/07 06:23:42;;;;;;;;;;;;;;;;;;6232053;23;19983;-79
2023/01/07 06:26:08;;;;;;;;;;;;;;;;;;6259419;23;19954;-78
2023/01/07 06:28:33;;;;;;;;;;;;;;;;;;6259439;23;20320;-79
2023/01/07 06:30:59;;;;;;;;;;;;;;;;;;6233627;23;19926;-78
2023/01/07 06:33:25;;;;;;;;;;;;;;;;;;6235166;23;19922;-79
2023/01/07 06:35:50;;;;;;;;;;;;;;;;;;6262324;23;20014;-79
2023/01/07 06:38:16;;;;;;;;;;;;;;;;;;6265699;23;19919;-78
2023/01/07 06:40:43;;;;;;;;;;;;;;;;;;6239935;23;19979;-78
2023/01/07 06:43:09;;;;;;;;;;;;;;;;;;6266396;23;20031;-78
2023/01/07 06:45:34;;;;;;;;;;;;;;;;;;6239714;23;19911;-78
2023/01/07 06:48:00;;;;;;;;;;;;;;;;;;6265255;23;19916;-78
2023/01/07 06:50:26;;;;;;;;;;;;;;;;;;6210817;23;19921;-78
2023/01/07 06:52:52;;;;;;;;;;;;;;;;;;6261804;23;19919;-77
2023/01/07 06:55:17;;;;;;;;;;;;;;;;;;6263103;23;19912;-78
2023/01/07 06:57:43;;;;;;;;;;;;;;;;;;6236078;23;19923;-78
2023/01/07 07:00:09;;;;;;;;;;;;;;;;;;6238459;23;19971;-78
2023/01/07 07:02:34;;;;;;;;;;;;;;;;;;6262009;23;19920;-78
2023/01/07 07:05:00;;;;;;;;;;;;;;;;;;6261044;23;20349;-77
2023/01/07 07:07:26;;;;;;;;;;;;;;;;;;6211546;23;20268;-79
2023/01/07 07:09:52;;;;;;;;;;;;;;;;;;6262982;23;20340;-78
2023/01/07 07:12:18;;;;;;;;;;;;;;;;;;6260553;23;19938;-81
2023/01/07 07:14:44;;;;;;;;;;;;;;;;;;6259966;23;19931;-79
2023/01/07 07:17:09;;;;;;;;;;;;;;;;;;6231672;23;19926;-78
2023/01/07 07:19:35;;;;;;;;;;;;;;;;;;6261959;23;19931;-78
2023/01/07 07:22:01;;;;;;;;;;;;;;;;;;6235284;23;19964;-79
2023/01/07 07:24:27;;;;;;;;;;;;;;;;;;6263879;23;19912;-80
2023/01/07 07:26:52;;;;;;;;;;;;;;;;;;6265596;23;19911;-80
2023/01/07 07:29:18;;;;;;;;;;;;;;;;;;6238436;23;19917;-79
2023/01/07 07:31:44;;;;;;;;;;;;;;;;;;6265675;23;20263;-80
2023/01/07 07:34:09;;;;;;;;;;;;;;;;;;6264752;23;19912;-80
2023/01/07 07:36:35;;;;;;;;;;;;;;;;;;6212959;23;19916;-81
2023/01/07 07:39:01;;;;;;;;;;;;;;;;;;6268695;23;19993;-82
2023/01/07 07:41:26;;;;;;;;;;;;;;;;;;6269260;23;19934;-81
2023/01/07 07:43:52;;;;;;;;;;;;;;;;;;6216816;23;19924;-81
2023/01/07 07:46:18;;;;;;;;;;;;;;;;;;6218772;23;19955;-81
2023/01/07 07:48:44;;;;;;;;;;;;;;;;;;6243453;22;19918;-82
2023/01/07 07:51:09;;;;;;;;;;;;;;;;;;6269869;23;19920;-81
2023/01/07 07:53:35;;;;;;;;;;;;;;;;;;6270186;23;19919;-83
2023/01/07 07:56:01;;;;;;;;;;;;;;;;;;6268318;23;19911;-84
2023/01/07 07:58:26;;;;;;;;;;;;;;;;;;6239115;23;20008;-81
2023/01/07 08:00:52;;;;;;;;;;;;;;;;;;6257409;23;20260;-85
2023/01/07 08:03:18;;;;;;;;;;;;;;;;;;6266616;23;19963;-87
2023/01/07 08:05:43;;;;;;;;;;;;;;;;;;6216346;23;19927;-85
2023/01/07 08:08:10;;;;;;;;;;;;;;;;;;6183828;23;20452;-78
2023/01/07 08:10:36;;;;;;;;;;;;;;;;;;6213559;23;19970;-78
2023/01/07 08:13:01;;;;;;;;;;;;;;;;;;6213495;23;20214;-78
2023/01/07 08:15:27;;;;;;;;;;;;;;;;;;6211042;23;19919;-78
2023/01/07 08:17:53;;;;;;;;;;;;;;;;;;6211321;23;19912;-78
2023/01/07 08:20:18;;;;;;;;;;;;;;;;;;6213396;23;20451;-77
2023/01/07 08:22:44;;;;;;;;;;;;;;;;;;6224012;23;19943;-79
2023/01/07 08:25:10;;;;;;;;;;;;;;;;;;6227240;23;19912;-80
2023/01/07 08:27:36;;;;;;;;;;;;;;;;;;6239757;23;19896;-83
2023/01/07 08:30:01;;;;;;;;;;;;;;;;;;6237007;23;19896;-82
2023/01/07 08:32:27;;;;;;;;;;;;;;;;;;6237328;23;19916;-81
2023/01/07 08:34:53;;;;;;;;;;;;;;;;;;6239718;23;19896;-81
2023/01/07 08:37:19;;;;;;;;;;;;;;;;;;6242081;23;19927;-84
2023/01/07 08:42:26;;;;;;;;;;;;;;;;;;6241169;22;19934;-86
2023/01/07 08:44:52;;;;;;;;;;;;;;;;;;6240139;22;19912;-84
2023/01/07 08:47:18;;;;;;;;;;;;;;;;;;6212537;23;19926;-85
2023/01/07 08:49:43;;;;;;;;;;;;;;;;;;6166852;23;19939;-81
2023/01/07 08:52:09;;;;;;;;;;;;;;;;;;6213818;23;19912;-78
2023/01/07 08:54:35;;;;;;;;;;;;;;;;;;6189709;23;19919;-80
2023/01/07 08:57:00;;;;;;;;;;;;;;;;;;6195406;23;19984;-78
2023/01/07 08:59:26;;;;;;;;;;;;;;;;;;6215353;23;19912;-80
2023/01/07 09:01:52;;;;;;;;;;;;;;;;;;6219217;23;19943;-81
2023/01/07 09:04:17;;;;;;;;;;;;;;;;;;6217839;23;19912;-82
2023/01/07 09:06:43;;;;;;;;;;;;;;;;;;6188057;23;19912;-80
2023/01/07 09:09:10;;;;;;;;;;;;;;;;;;6185166;23;19912;-82
2023/01/07 09:11:36;;;;;;;;;;;;;;;;;;6182533;23;19918;-79
2023/01/07 09:14:01;;;;;;;;;;;;;;;;;;6182471;23;19928;-80
2023/01/07 09:16:27;;;;;;;;;;;;;;;;;;6211638;23;20368;-82
2023/01/07 09:18:52;;;;;;;;;;;;;;;;;;6184394;23;19911;-80
2023/01/07 09:21:18;;;;;;;;;;;;;;;;;;6210603;23;19912;-81
2023/01/07 09:23:44;;;;;;;;;;;;;;;;;;6210843;23;19923;-81
2023/01/07 09:26:09;;;;;;;;;;;;;;;;;;6182195;23;19976;-79
2023/01/07 09:28:35;;;;;;;;;;;;;;;;;;6213832;23;19924;-80
2023/01/07 09:31:02;;;;;;;;;;;;;;;;;;6211915;23;19934;-81
2023/01/07 09:33:27;;;;;;;;;;;;;;;;;;6218902;23;19991;-79
2023/01/07 09:35:53;;;;;;;;;;;;;;;;;;6210791;23;20309;-80
2023/01/07 09:38:19;;;;;;;;;;;;;;;;;;6211984;23;19978;-81
2023/01/07 09:40:45;;;;;;;;;;;;;;;;;;6212225;23;20593;-79
2023/01/07 09:43:10;;;;;;;;;;;;;;;;;;6210657;23;19931;-79
2023/01/07 09:45:36;;;;;;;;;;;;;;;;;;6159318;23;19919;-80
2023/01/07 09:48:01;;;;;;;;;;;;;;;;;;6185472;23;19912;-81
2023/01/07 09:50:27;;;;;;;;;;;;;;;;;;6184396;23;20370;-79
2023/01/07 09:52:53;;;;;;;;;;;;;;;;;;6211200;23;19943;-78
2023/01/07 09:55:18;;;;;;;;;;;;;;;;;;6210740;23;19912;-79
2023/01/07 09:57:44;;;;;;;;;;;;;;;;;;6184663;23;19912;-78
2023/01/07 10:00:10;;;;;;;;;;;;;;;;;;6212392;23;19912;-80
2023/01/07 10:02:36;;;;;;;;;;;;;;;;;;6214913;23;20553;-78
2023/01/07 10:05:01;;;;;;;;;;;;;;;;;;6212799;23;19923;-80
2023/01/07 10:07:27;;;;;;;;;;;;;;;;;;6189715;23;19954;-80
2023/01/07 10:09:53;;;;;;;;;;;;;;;;;;6215498;23;19920;-79
2023/01/07 10:12:19;;;;;;;;;;;;;;;;;;6213597;23;19912;-77
2023/01/07 10:14:45;;;;;;;;;;;;;;;;;;6218360;23;19912;-79
2023/01/07 10:17:10;;;;;;;;;;;;;;;;;;6221711;23;20341;-79
2023/01/07 10:19:36;;;;;;;;;;;;;;;;;;6214373;23;19966;-82
2023/01/07 10:22:02;;;;;;;;;;;;;;;;;;6214631;23;19947;-78
2023/01/07 10:24:27;;;;;;;;;;;;;;;;;;6212903;23;20349;-79
2023/01/07 10:26:53;;;;;;;;;;;;;;;;;;6161226;23;19919;-80
2023/01/07 10:29:19;;;;;;;;;;;;;;;;;;6186337;23;20250;-77
2023/01/07 10:31:45;;;;;;;;;;;;;;;;;;6215218;23;20261;-76
2023/01/07 10:34:11;;;;;;;;;;;;;;;;;;6189961;23;19916;-79
2023/01/07 10:36:37;;;;;;;;;;;;;;;;;;6210853;23;19912;-79
2023/01/07 10:39:02;;;;;;;;;;;;;;;;;;6212174;23;19918;-81
2023/01/07 10:41:28;;;;;;;;;;;;;;;;;;6186343;23;19959;-77
2023/01/07 10:43:55;;;;;;;;;;;;;;;;;;6186255;23;19951;-79
2023/01/07 10:46:21;;;;;;;;;;;;;;;;;;6188487;23;20242;-81
2023/01/07 10:48:47;;;;;;;;;;;;;;;;;;6186631;23;19912;-79
2023/01/07 10:51:13;;;;;;;;;;;;;;;;;;6211459;23;19911;-79
2023/01/07 10:53:38;;;;;;;;;;;;;;;;;;6187015;23;20569;-77
2023/01/07 10:56:04;;;;;;;;;;;;;;;;;;6216241;23;19911;-80
2023/01/07 10:58:29;;;;;;;;;;;;;;;;;;6176603;23;19912;-83
2023/01/07 11:00:55;;;;;;;;;;;;;;;;;;6151474;23;19939;-84
2023/01/07 11:30:36;;;;;;;;;;;;;;;;;;6220476;23;19974;-82
2023/01/07 11:33:02;;;;;;;;;;;;;;;;;;6235112;22;19920;-82
2023/01/07 11:35:27;;;;;;;;;;;;;;;;;;6181785;23;19915;-81
2023/01/07 11:37:53;;;;;;;;;;;;;;;;;;6167871;23;19911;-80
2023/01/07 11:40:19;;;;;;;;;;;;;;;;;;6213141;23;19912;-80
2023/01/07 11:42:45;;;;;;;;;;;;;;;;;;6192768;23;19942;-82
2023/01/07 11:45:10;;;;;;;;;;;;;;;;;;6197065;23;19991;-81
2023/01/07 11:47:36;;;;;;;;;;;;;;;;;;6193916;23;19934;-82
2023/01/07 11:50:02;;;;;;;;;;;;;;;;;;6166624;23;19993;-81
2023/01/07 11:52:28;;;;;;;;;;;;;;;;;;6188366;23;19912;-81
2023/01/07 11:54:53;;;;;;;;;;;;;;;;;;6199965;23;19930;-82
2023/01/07 11:57:19;;;;;;;;;;;;;;;;;;6176479;23;19924;-89
2023/01/07 11:59:45;;;;;;;;;;;;;;;;;;6214361;23;19931;-83
2023/01/07 12:02:11;;;;;;;;;;;;;;;;;;6213427;23;20380;-79
2023/01/07 12:04:36;;;;;;;;;;;;;;;;;;6187724;23;20356;-81
2023/01/07 12:07:02;;;;;;;;;;;;;;;;;;6215841;23;19911;-81
2023/01/07 12:09:28;;;;;;;;;;;;;;;;;;6213820;23;19919;-81
2023/01/07 12:11:53;;;;;;;;;;;;;;;;;;6218996;23;19920;-80
2023/01/07 12:14:19;;;;;;;;;;;;;;;;;;6213384;23;19911;-79
2023/01/07 12:16:45;;;;;;;;;;;;;;;;;;6211002;23;20341;-79
2023/01/07 12:19:10;;;;;;;;;;;;;;;;;;6216815;23;19916;-80
2023/01/07 12:21:36;;;;;;;;;;;;;;;;;;6214165;23;19911;-83
2023/01/07 12:24:02;;;;;;;;;;;;;;;;;;6223895;23;19928;-81
2023/01/07 12:26:27;;;;;;;;;;;;;;;;;;6213954;23;19919;-80
2023/01/07 12:28:53;;;;;;;;;;;;;;;;;;6216932;23;19950;-82
2023/01/07 12:31:18;;;;;;;;;;;;;;;;;;6226275;23;19927;-78
2023/01/07 12:33:44;;;;;;;;;;;;;;;;;;6211068;23;20010;-79
2023/01/07 12:36:10;;;;;;;;;;;;;;;;;;6210817;23;19919;-79
2023/01/07 12:38:37;;;;;;;;;;;;;;;;;;6212440;23;20333;-80
2023/01/07 12:41:04;;;;;;;;;;;;;;;;;;6213520;23;19911;-79
2023/01/07 12:43:30;;;;;;;;;;;;;;;;;;6211607;23;19962;-80
2023/01/07 12:45:55;;;;;;;;;;;;;;;;;;6210783;23;19912;-80
2023/01/07 12:48:21;;;;;;;;;;;;;;;;;;6214611;23;19935;-80
2023/01/07 12:50:46;;;;;;;;;;;;;;;;;;6213893;23;19918;-81
2023/01/07 12:53:12;;;;;;;;;;;;;;;;;;6215409;23;19934;-82
2023/01/07 12:55:38;;;;;;;;;;;;;;;;;;6213992;23;19944;-78
2023/01/07 12:58:05;;;;;;;;;;;;;;;;;;6215007;23;19920;-81
2023/01/07 13:00:31;;;;;;;;;;;;;;;;;;6214806;23;20542;-80
2023/01/07 13:02:57;;;;;;;;;;;;;;;;;;6220481;23;20002;-82
2023/01/07 13:05:23;;;;;;;;;;;;;;;;;;6217497;23;20390;-81
2023/01/07 13:07:49;;;;;;;;;;;;;;;;;;6222367;23;19928;-81
2023/01/07 13:10:15;;;;;;;;;;;;;;;;;;6234795;23;19946;-85
2023/01/07 13:12:47;;;;;;;;;;;;;;;;;;6229891;23;19912;-81
2023/01/07 14:37:03;;;;;;;;;;;;;;;;;;6239890;23;19943;-80
2023/01/07 14:39:29;;;;;;;;;;;;;;;;;;6249914;23;19912;-79
2023/01/07 14:41:55;;;;;;;;;;;;;;;;;;6221937;23;20262;-80
2023/01/07 14:44:20;;;;;;;;;;;;;;;;;;6248730;23;19930;-80
2023/01/07 14:46:46;;;;;;;;;;;;;;;;;;6252419;23;19912;-81
2023/01/07 14:49:12;;;;;;;;;;;;;;;;;;6267175;23;19918;-81
2023/01/07 14:51:38;;;;;;;;;;;;;;;;;;6264638;23;19911;-82
2023/01/07 14:54:04;;;;;;;;;;;;;;;;;;6233016;23;19907;-79
2023/01/07 14:56:29;;;;;;;;;;;;;;;;;;6215669;23;20341;-78
2023/01/07 14:58:56;;;;;;;;;;;;;;;;;;6218815;23;20247;-78
2023/01/07 15:01:21;;;;;;;;;;;;;;;;;;6248903;23;19915;-80
2023/01/07 15:03:47;;;;;;;;;;;;;;;;;;6250139;23;19926;-82
2023/01/07 15:06:13;;;;;;;;;;;;;;;;;;6223327;23;19918;-81
2023/01/07 15:16:52;;;;;;;;;;;;;;;;;;6213699;23;20001;-82
2023/01/07 15:19:18;;;;;;;;;;;;;;;;;;6262033;23;19911;-83
2023/01/07 15:21:43;;;;;;;;;;;;;;;;;;6262346;23;19939;-83
2023/01/07 15:24:09;;;;;;;;;;;;;;;;;;6266569;23;20221;-84
2023/01/07 15:26:35;;;;;;;;;;;;;;;;;;6263890;23;19949;-83
2023/01/07 15:29:01;;;;;;;;;;;;;;;;;;6237648;23;19935;-83
2023/01/07 15:31:26;;;;;;;;;;;;;;;;;;6238509;23;19912;-82
2023/01/07 15:33:52;;;;;;;;;;;;;;;;;;6240063;23;19904;-84
2023/01/07 15:36:18;;;;;;;;;;;;;;;;;;6266925;23;19959;-82
2023/01/07 15:38:44;;;;;;;;;;;;;;;;;;6264218;23;19934;-82
2023/01/07 15:41:10;;;;;;;;;;;;;;;;;;6261521;23;19912;-82
2023/01/07 15:43:36;;;;;;;;;;;;;;;;;;6260677;23;20323;-81
2023/01/07 15:46:02;;;;;;;;;;;;;;;;;;6263471;23;19911;-82
2023/01/07 15:48:28;;;;;;;;;;;;;;;;;;6262406;23;19912;-82
2023/01/07 15:50:53;;;;;;;;;;;;;;;;;;6258166;23;19922;-82
2023/01/07 15:53:19;;;;;;;;;;;;;;;;;;6255419;23;19911;-82
2023/01/07 15:55:45;;;;;;;;;;;;;;;;;;6228622;23;19919;-82
2023/01/07 15:58:10;;;;;;;;;;;;;;;;;;6210225;23;19911;-81
2023/01/07 16:00:36;;;;;;;;;;;;;;;;;;6234537;23;19932;-82
2023/01/07 16:03:02;;;;;;;;;;;;;;;;;;6232661;23;19998;-82
2023/01/07 16:05:27;;;;;;;;;;;;;;;;;;6258693;23;20341;-82
2023/01/07 16:07:53;;;;;;;;;;;;;;;;;;6236151;23;19915;-82
2023/01/07 16:10:19;;;;;;;;;;;;;;;;;;6266295;23;19904;-83
2023/01/07 16:12:44;;;;;;;;;;;;;;;;;;6238240;23;19912;-82
2023/01/07 16:15:10;;;;;;;;;;;;;;;;;;6236819;23;19911;-80
2023/01/07 16:17:36;;;;;;;;;;;;;;;;;;6237646;23;20007;-82
2023/01/07 16:20:01;;;;;;;;;;;;;;;;;;6263536;23;19919;-81
2023/01/07 16:22:28;;;;;;;;;;;;;;;;;;6264873;23;19942;-81
2023/01/07 16:24:54;;;;;;;;;;;;;;;;;;6266234;23;19911;-81
2023/01/07 16:27:19;;;;;;;;;;;;;;;;;;6269491;23;19912;-82
2023/01/07 16:29:45;;;;;;;;;;;;;;;;;;6269411;23;19931;-81
2023/01/07 16:32:11;;;;;;;;;;;;;;;;;;6267392;23;19916;-81
2023/01/07 16:34:36;;;;;;;;;;;;;;;;;;6267353;23;19931;-82
2023/01/07 16:37:02;;;;;;;;;;;;;;;;;;6269576;22;19903;-82
2023/01/07 17:25:23;;;;;;;;;;;;;;;;;;6221111;23;19927;-81
2023/01/07 17:27:49;;;;;;;;;;;;;;;;;;6223745;23;19912;-81
2023/01/07 17:30:15;;;;;;;;;;;;;;;;;;6230210;23;19911;-83
2023/01/07 17:32:41;;;;;;;;;;;;;;;;;;6234235;23;20005;-81
2023/01/07 17:35:07;;;;;;;;;;;;;;;;;;6206580;23;19944;-84
2023/01/07 17:37:32;;;;;;;;;;;;;;;;;;6240273;23;19923;-81
2023/01/07 17:39:58;;;;;;;;;;;;;;;;;;6224822;23;19997;-79
2023/01/07 17:45:08;;;;;;;;;;;;;;;;;;6232043;23;19916;-82
2023/01/07 17:47:33;;;;;;;;;;;;;;;;;;6196727;23;20002;-78
2023/01/07 17:50:00;;;;;;;;;;;;;;;;;;6163762;23;19954;-79
2023/01/07 17:52:25;;;;;;;;;;;;;;;;;;6224769;23;20389;-80
2023/01/07 17:54:51;;;;;;;;;;;;;;;;;;6218309;23;19982;-78
2023/01/07 17:57:17;;;;;;;;;;;;;;;;;;6202251;23;19896;-79
2023/01/07 17:59:46;;;;;;;;;;;;;;;;;;6238464;23;19926;-78
2023/01/07 18:02:12;;;;;;;;;;;;;;;;;;6238813;23;19900;-77
2023/01/07 18:04:37;;;;;;;;;;;;;;;;;;6238605;23;19947;-79
2023/01/07 18:07:03;;;;;;;;;;;;;;;;;;6237766;23;19900;-79
2023/01/07 18:09:29;;;;;;;;;;;;;;;;;;6239210;23;19911;-78
2023/01/07 18:14:39;;;;;;;;;;;;;;;;;;6217000;23;19912;-77
2023/01/07 18:17:06;;;;;;;;;;;;;;;;;;6214417;23;19912;-79
2023/01/07 18:19:32;;;;;;;;;;;;;;;;;;6219099;23;20268;-81
2023/01/07 18:21:57;;;;;;;;;;;;;;;;;;6217472;23;19950;-79
2023/01/07 18:24:23;;;;;;;;;;;;;;;;;;6211459;23;19963;-79
2023/01/07 18:26:49;;;;;;;;;;;;;;;;;;6209808;23;20042;-80
2023/01/07 18:29:14;;;;;;;;;;;;;;;;;;6210414;23;20325;-79
2023/01/07 18:31:41;;;;;;;;;;;;;;;;;;6185052;23;19912;-79
2023/01/07 18:34:06;;;;;;;;;;;;;;;;;;6211060;23;19911;-80
2023/01/07 18:36:32;;;;;;;;;;;;;;;;;;6210824;23;19912;-78
2023/01/07 18:38:58;;;;;;;;;;;;;;;;;;6184589;23;20337;-79
2023/01/07 18:41:27;;;;;;;;;;;;;;;;;;6210982;23;19919;-79
2023/01/07 18:43:55;;;;;;;;;;;;;;;;;;6209839;23;19926;-78
2023/01/07 18:46:20;;;;;;;;;;;;;;;;;;6184048;23;19915;-78
2023/01/07 18:48:46;;;;;;;;;;;;;;;;;;6183700;23;19938;-81
2023/01/07 18:51:12;;;;;;;;;;;;;;;;;;6211338;23;19912;-78
2023/01/07 18:53:37;;;;;;;;;;;;;;;;;;6208626;23;20341;-80
2023/01/07 18:56:07;;;;;;;;;;;;;;;;;;6210870;23;19919;-78
2023/01/07 18:58:33;;;;;;;;;;;;;;;;;;6210771;23;19912;-82
2023/01/07 19:00:58;;;;;;;;;;;;;;;;;;6209751;23;19919;-78
2023/01/07 19:03:24;;;;;;;;;;;;;;;;;;6196179;23;19900;-85
2023/01/07 19:05:49;;;;;;;;;;;;;;;;;;6220618;23;20388;-82
2023/01/07 19:08:15;;;;;;;;;;;;;;;;;;6219683;23;19923;-82
2023/01/07 19:10:43;;;;;;;;;;;;;;;;;;6214012;23;19920;-83
2023/01/07 19:13:09;;;;;;;;;;;;;;;;;;6193513;23;19912;-82
2023/01/07 19:15:35;;;;;;;;;;;;;;;;;;6218223;23;19923;-84
2023/01/07 19:18:01;;;;;;;;;;;;;;;;;;6220465;23;19916;-83
2023/01/07 19:20:26;;;;;;;;;;;;;;;;;;6226743;23;19934;-83
2023/01/07 19:22:58;;;;;;;;;;;;;;;;;;6223576;23;19955;-81
2023/01/07 19:25:24;;;;;;;;;;;;;;;;;;6226954;23;19919;-83
2023/01/07 19:27:49;;;;;;;;;;;;;;;;;;6221666;23;19919;-82
2023/01/07 19:30:15;;;;;;;;;;;;;;;;;;6221305;23;19912;-81
2023/01/07 19:32:41;;;;;;;;;;;;;;;;;;6224372;23;19919;-82